Terminal Aerodrome Forecast
Issued by NWS

Home | Current Version | Previous Version | Text Only | Print | Product List | Glossary On
Versions: 1 2 3 4 5 6 7 8 9 10 11 12 13 14
000
FTPA31 PHFO 301733
TAFHJR
TAF
PHJR 301733Z 3018/3118 VRB03KT P6SM SKC
     FM302300 08008KT P6SM FEW030 SCT045
     FM310200 05008KT P6SM SCT030 BKN045
     FM310600 VRB02KT P6SM SCT030 BKN045=

USA.gov is the U.S. government's official web portal to all federal, state and local government web resources and services.